Airfield :
LOGIN :

Register | Disclaimer

   EN    FR    IT 

 










Legend :    VFR   Marginal VFR   IFR   Intensive IFR   Very Intensive IFR
Visi :
Ceiling :
>= 8 km
>= 3000ft
5 to 8 km
1000 to 3000 ft
1500m to 5 km
500 to 1000 ft
800 to 1500m
200 to 500 ft
< 800m
< 200 ft
Symbols :   Thunderstorms  Fog  Heavy snow  Heavy precipitations  Wind > 20 kt
SIGMETs :     Misc.  Thunderstorms  Icing  Turbulence  Mountain Waves  Volcanic Ashes






- Airport Elevation : 42 ft
- IATA code : KGD


UMKK - Khrabrava - Kaliningrad

CURRENT METAR :
  • 191400Z 05005MPS 9999 OVC026 12/07 Q1016 R06/CLRD95 NOSIG RMK QFE761/1014

EXPIRED METARs :
  • 191330Z 04004MPS 020V080 9999 OVC024 12/07 Q1016 R06/CLRD95 NOSIG RMK QFE761/1014
  • 191300Z 05005MPS 9999 BKN024 12/07 Q1016 R06/95D NOSIG RMK QFE761/1014
  • 191230Z 03004MPS 9999 BKN022 12/07 Q1016 R06/CLRD95 NOSIG RMK QFE761/1014
  • 191200Z 03005MPS 360V070 9999 BKN023 11/07 Q1016 R06/95D NOSIG RMK QFE760/1014
  • 191130Z 02005MPS 9999 BKN021 11/07 Q1016 R06/CLRD95 NOSIG RMK QFE761/1014

TAF TAF UMKK
Valid from the 19 at 12:00 until the 20 at 12:00 UTC


191054Z 1912/2012 02005MPS 9999 BKN016
BECMG 1915/1917 04005G11MPS
BECMG 2008/2010 02006MPS



MET'MAP, your aeronautical weather chart ! - Copyright ORBIFLY December 2007 - Disclaimer

ORBIFLY MET'MAP TEAM :

Programming & Development : Alexandra Zaïnal
Concept & original design : Baudouin d'Aumeries
Assistance for programming : Marc-Olivier Méhu
Technical & hardware support : Manuel Goepfert

Contact : metmap@orbifly.com




SOURCES & CREDITS :

   NOAA